Accueil
METAR-TAF:

METAR-TAF

Aéroports :

Base aérienne 701 Salon-de-Provence

Salon-de-Provence, France

latitude: 43-36N, longitude: 005-06E, altitude: 59 m

Observation

Le bulletin a été fait il y a 32 minutes, à 01:00 UTC
Vent 3 kt de nord-est
Température 4°C
Humidité 87%
Pression 1016 hPa
Visibilité 10 km ou plus

METAR: LFMY 170100Z AUTO 04003KT 9999 ///TCU 04/02 Q1016

Heure: 03:32 (01:32 UTC)

Prévision

Le bulletin a été fait il y a 17 heures et 32 minutes, à 08:00 UTC
Prévision valable du 16 à 09 UTC au 17 à 09 UTC
Vent 10 kt de nord/nord-ouest
Visibilité 10 km ou plus
pas de nuages en-dessous de 1500 mètres et pas de cumulonimbus.
Evoluant progressivement
du 16 à 18 UTC au 16 à 20 UTC
Vent 2 kt de direction variable

TAF: LFMY 160800Z 1609/1709 33010KT CAVOK TX16/1614Z TN04/1705Z BECMG 1618/1620 VRB02KT

Observations et prévisions météorologiques de plus de 4000 aéroports (messages METAR et TAF).

Les stations disponibles sont représentées par des disques jaunes et rouges sur la carte.

Passer la souris dessus pour voir le nom de la station.

Cliquer dessus pour voir les observations et prévisions météorologiques.

Pour changer de carte: cliquez sur les boutons verts avec une croix noire pour zoomer, sur le bouton vert avec un tiret pour effectuer un zoom arrière, ou sur les flèches vertes pour les cartes adjacentes.


METAR-TAF: